Time;durP1;ratioP1;P1;durP2;ratioP2;P2;SDS_P1;SDS_P2;PMS_P1;PMS_P2;Temp;Humidity;BMP_temperature;BMP_pressure;BME280_temperature;BME280_humidity;BME280_pressure;Samples;Min_cycle;Max_cycle;Signal;HPM_P1;HPM_P2
2023/07/11 00:09:36;;;;;;;2.22;2.03;;;;;;;26.86;40.23;100891.91;20992742;28;20546;-73
2023/07/11 00:19:57;;;;;;;2.17;1.98;;;;;;;26.77;39.73;100893.84;20992375;28;20071;-73
2023/07/11 00:29:59;;;;;;;1.90;1.80;;;;;;;26.78;39.74;100886.25;20990570;28;20041;-73
2023/07/11 00:40:00;;;;;;;1.60;1.40;;;;;;;26.69;39.70;100874.97;20992013;28;20052;-73
2023/07/11 00:50:08;;;;;;;2.05;1.85;;;;;;;26.70;39.84;100924.34;20999405;28;20098;-73
2023/07/11 01:00:13;;;;;;;2.13;1.92;;;;;;;26.59;39.34;100935.00;21007606;28;20403;-72
2023/07/11 01:10:14;;;;;;;2.15;1.95;;;;;;;26.62;39.72;100950.41;21006718;28;20045;-73
2023/07/11 01:20:16;;;;;;;1.80;1.70;;;;;;;26.60;39.63;100963.91;21006159;28;20040;-72
2023/07/11 01:30:22;;;;;;;1.85;1.70;;;;;;;26.55;39.07;100941.59;21005547;28;20067;-73
2023/07/11 01:40:24;;;;;;;2.03;1.87;;;;;;;26.50;38.91;100958.56;21005559;28;20438;-74
2023/07/11 01:50:25;;;;;;;2.42;1.92;;;;;;;26.39;39.06;100957.09;21006876;28;20075;-72
2023/07/11 02:00:26;;;;;;;1.80;1.65;;;;;;;26.43;38.66;100991.78;21003533;28;20086;-72
2023/07/11 02:10:28;;;;;;;1.85;1.75;;;;;;;26.40;38.83;100998.06;21002985;28;20078;-73
2023/07/11 02:20:38;;;;;;;2.03;1.90;;;;;;;26.02;38.36;100956.28;21001992;28;20053;-73
2023/07/11 02:30:40;;;;;;;1.70;1.60;;;;;;;26.33;38.41;101007.72;21001892;28;20032;-73
2023/07/11 02:40:42;;;;;;;2.13;1.92;;;;;;;26.22;38.51;101006.31;20999827;28;20047;-72
2023/07/11 02:50:43;;;;;;;1.70;1.60;;;;;;;26.28;38.69;101026.66;20998750;28;20430;-71
2023/07/11 03:00:49;;;;;;;1.70;1.60;;;;;;;26.13;38.46;101008.22;20998470;28;20044;-72
2023/07/11 03:10:50;;;;;;;1.90;1.80;;;;;;;26.19;38.42;101020.97;20997142;28;20113;-73
2023/07/11 03:20:58;;;;;;;2.10;1.90;;;;;;;26.13;38.15;101010.19;20997327;28;20051;-72
2023/07/11 03:30:59;;;;;;;2.00;1.80;;;;;;;26.07;38.12;101013.09;20995983;28;20051;-71
2023/07/11 03:41:03;;;;;;;2.05;1.95;;;;;;;25.98;38.50;101008.53;20996079;28;20048;-73
2023/07/11 03:51:05;;;;;;;1.73;1.63;;;;;;;26.12;38.37;101037.41;20995244;28;20036;-71
2023/07/11 04:01:06;;;;;;;1.83;1.73;;;;;;;26.20;41.02;101036.63;20994055;28;20040;-73
2023/07/11 04:11:07;;;;;;;2.25;1.70;;;;;;;26.34;43.61;101029.03;20994732;28;20066;-72
2023/07/11 04:21:09;;;;;;;1.70;1.60;;;;;;;26.48;45.22;101033.78;20993556;28;20476;-71
2023/07/11 04:31:13;;;;;;;1.90;1.80;;;;;;;26.62;46.31;101043.03;20992523;28;20063;-72
2023/07/11 04:41:14;;;;;;;1.92;1.83;;;;;;;26.66;46.69;101041.22;20990962;28;20037;-72
2023/07/11 04:51:15;;;;;;;2.20;2.00;;;;;;;26.80;46.44;101047.63;20992126;28;20040;-72
2023/07/11 05:01:17;;;;;;;2.33;2.00;;;;;;;26.98;46.87;101064.56;20989452;28;20060;-73
2023/07/11 05:11:20;;;;;;;2.03;1.83;;;;;;;27.01;47.09;101050.72;20992210;28;20101;-72
2023/07/11 05:21:22;;;;;;;1.77;1.67;;;;;;;27.13;47.00;101054.97;20990779;28;20109;-72
2023/07/11 05:31:24;;;;;;;2.13;1.73;;;;;;;27.17;46.75;101045.59;20990786;28;20045;-72
2023/07/11 05:41:26;;;;;;;2.40;2.03;;;;;;;27.23;47.07;101038.69;21005004;28;20428;-71
2023/07/11 05:51:27;;;;;;;2.05;1.55;;;;;;;27.24;47.18;101022.66;21004309;28;20480;-71
2023/07/11 06:01:30;;;;;;;1.73;1.63;;;;;;;27.29;46.96;101026.13;21002235;28;20070;-71
2023/07/11 06:11:32;;;;;;;1.98;1.80;;;;;;;27.29;46.74;101017.72;21002579;28;20411;-71
2023/07/11 06:21:33;;;;;;;2.42;1.90;;;;;;;27.44;47.08;101021.25;21002030;28;20107;-73
2023/07/11 06:31:34;;;;;;;2.20;2.00;;;;;;;27.47;46.77;101015.00;21001168;28;20066;-73
2023/07/11 06:41:36;;;;;;;3.30;1.70;;;;;;;27.51;46.74;101016.00;21000228;28;20118;-72
2023/07/11 06:51:37;;;;;;;1.98;1.77;;;;;;;27.48;46.68;101002.59;20998399;28;20388;-74
2023/07/11 07:01:39;;;;;;;2.03;1.73;;;;;;;27.56;46.71;101016.69;20998804;28;20442;-73
2023/07/11 07:11:40;;;;;;;1.92;1.77;;;;;;;27.61;46.43;101018.53;20997790;28;20062;-71
2023/07/11 07:21:42;;;;;;;1.60;1.50;;;;;;;27.65;46.52;100999.84;20995335;28;20044;-71
2023/07/11 07:31:46;;;;;;;1.60;1.50;;;;;;;27.69;46.22;101000.84;20996741;28;20040;-71
2023/07/11 07:41:47;;;;;;;2.13;1.92;;;;;;;27.73;46.39;101006.69;20995728;28;20114;-73
2023/07/11 07:51:48;;;;;;;1.90;1.80;;;;;;;27.60;46.28;100985.94;20994400;28;20037;-73
2023/07/11 08:01:53;;;;;;;1.65;1.55;;;;;;;27.79;46.21;101013.81;20993327;28;20040;-71
2023/07/11 08:11:54;;;;;;;1.98;1.70;;;;;;;27.80;46.40;101021.91;20994067;28;20040;-71
2023/07/11 08:21:55;;;;;;;1.95;1.75;;;;;;;27.82;46.28;101028.06;20992514;28;20379;-73
2023/07/11 08:31:58;;;;;;;1.67;1.58;;;;;;;27.84;45.97;101039.78;20992765;28;20028;-72
2023/07/11 08:42:08;;;;;;;1.75;1.60;;;;;;;27.84;46.25;101053.84;20991781;28;20389;-72
2023/07/11 08:52:10;;;;;;;2.20;1.90;;;;;;;27.88;45.89;101059.66;20991420;28;20037;-72
2023/07/11 09:02:17;;;;;;;2.00;1.80;;;;;;;27.88;46.15;101058.84;20990590;28;20040;-72
2023/07/11 09:12:58;;;;;;;2.17;1.80;;;;;;;27.75;46.25;101050.19;21000892;28;20396;-71
2023/07/11 09:23:13;;;;;;;1.95;1.75;;;;;;;27.86;45.99;101082.50;21005766;28;20044;-72
2023/07/11 09:33:20;;;;;;;1.98;1.77;;;;;;;27.81;45.83;101082.66;21004736;28;20040;-72
2023/07/11 09:43:22;;;;;;;1.70;1.60;;;;;;;27.93;46.10;101112.13;21001779;28;20040;-72
2023/07/11 09:53:26;;;;;;;1.98;1.77;;;;;;;27.95;46.05;101121.06;21002971;28;20399;-72
2023/07/11 10:03:35;;;;;;;1.67;1.58;;;;;;;27.92;46.08;101121.72;21002557;28;20471;-72
2023/07/11 10:13:36;;;;;;;2.00;1.80;;;;;;;27.97;46.03;101146.88;21001449;28;20360;-72
2023/07/11 10:23:38;;;;;;;2.10;1.90;;;;;;;27.96;45.87;101142.44;20999298;28;20388;-72
2023/07/11 10:34:07;;;;;;;2.05;1.83;;;;;;;27.83;46.34;101136.56;21000142;28;20063;-73
2023/07/11 10:44:20;;;;;;;1.92;1.67;;;;;;;27.81;45.92;101115.53;20998798;28;20118;-72
2023/07/11 10:54:27;;;;;;;2.25;2.05;;;;;;;27.96;46.02;101167.75;20997916;28;20044;-72
2023/07/11 11:05:04;;;;;;;2.47;2.28;;;;;;;27.96;46.17;101190.25;20997996;28;20029;-72
2023/07/11 11:15:42;;;;;;;1.92;1.75;;;;;;;27.93;46.34;101185.25;20997435;28;20040;-72
2023/07/11 11:25:52;;;;;;;1.70;1.60;;;;;;;28.01;46.06;101198.53;20996108;28;20514;-71
2023/07/11 11:35:59;;;;;;;1.80;1.70;;;;;;;27.94;46.14;101206.59;20994435;28;20044;-72
2023/07/11 11:46:04;;;;;;;1.90;1.80;;;;;;;27.88;46.12;101217.16;20994231;28;20032;-72
2023/07/11 11:56:07;;;;;;;1.80;1.70;;;;;;;28.00;45.85;101239.06;20993403;28;20041;-72
2023/07/11 12:06:37;;;;;;;1.65;1.55;;;;;;;27.95;46.41;101230.75;20993438;28;20090;-72
2023/07/11 12:16:38;;;;;;;1.60;1.50;;;;;;;27.84;46.13;101211.34;20993492;28;20037;-71
2023/07/11 12:26:39;;;;;;;1.92;1.48;;;;;;;28.02;46.05;101225.50;20993049;28;20066;-71
2023/07/11 12:37:02;;;;;;;2.05;1.85;;;;;;;28.02;46.14;101225.50;20992412;28;20045;-72
2023/07/11 12:47:12;;;;;;;1.90;1.80;;;;;;;27.86;46.37;101197.81;21001637;28;20040;-72
2023/07/11 12:57:17;;;;;;;1.90;1.60;;;;;;;28.04;46.11;101217.56;21007294;28;20036;-71
2023/07/11 13:07:25;;;;;;;2.25;2.05;;;;;;;28.05;46.24;101222.06;21007453;28;20037;-72
2023/07/11 13:17:27;;;;;;;3.15;2.85;;;;;;;28.06;46.25;101232.16;21007324;28;20044;-71
2023/07/11 13:27:31;;;;;;;2.55;2.17;;;;;;;28.07;46.24;101214.94;21006447;28;20545;-71
2023/07/11 13:37:47;;;;;;;3.17;2.40;;;;;;;28.05;46.26;101205.19;21005215;28;20033;-71
2023/07/11 13:47:49;;;;;;;3.00;2.15;;;;;;;28.07;46.20;101219.75;21003460;28;20028;-71
2023/07/11 13:57:50;;;;;;;2.60;2.40;;;;;;;28.05;46.21;101211.63;21003131;28;20076;-71
2023/07/11 14:07:54;;;;;;;4.22;3.38;;;;;;;28.10;46.27;101207.84;21002851;28;20040;-71
2023/07/11 14:17:58;;;;;;;3.83;2.80;;;;;;;28.08;46.35;101185.66;21000777;28;20037;-72
2023/07/11 14:27:59;;;;;;;4.18;3.25;;;;;;;28.12;46.47;101174.56;21002385;28;20440;-72
2023/07/11 14:38:00;;;;;;;4.28;3.20;;;;;;;27.97;46.28;101146.88;21000751;28;20036;-72
2023/07/11 14:48:05;;;;;;;3.75;2.78;;;;;;;28.12;46.14;101178.22;20999528;28;20411;-72
2023/07/11 14:58:09;;;;;;;4.10;2.90;;;;;;;28.14;46.13;101174.28;20999251;28;20106;-74
2023/07/11 15:08:16;;;;;;;3.53;2.88;;;;;;;28.15;46.26;101182.38;20996918;28;20056;-71
2023/07/11 15:18:18;;;;;;;3.92;3.17;;;;;;;28.10;46.22;101174.09;20996796;28;20037;-71
2023/07/11 15:28:23;;;;;;;4.60;3.30;;;;;;;28.12;46.29;101177.41;20996634;28;20082;-72
2023/07/11 15:38:24;;;;;;;3.33;2.92;;;;;;;28.13;46.19;101181.84;20995456;28;20028;-71
2023/07/11 15:48:26;;;;;;;4.03;3.20;;;;;;;28.19;46.46;101176.94;20994755;28;20476;-72
2023/07/11 15:58:30;;;;;;;4.10;3.28;;;;;;;28.20;46.31;101178.59;20994067;28;20066;-72
2023/07/11 16:08:37;;;;;;;4.72;3.50;;;;;;;28.24;46.20;101169.16;20993294;28;20048;-71
2023/07/11 16:18:41;;;;;;;3.72;3.10;;;;;;;28.18;46.32;101169.63;20992363;28;20036;-72
2023/07/11 16:28:43;;;;;;;4.75;3.60;;;;;;;28.21;46.47;101157.72;20992885;28;20045;-73
2023/07/11 16:38:44;;;;;;;4.90;3.63;;;;;;;28.20;46.20;101137.22;20992406;28;20037;-72
2023/07/11 16:48:46;;;;;;;4.72;3.53;;;;;;;28.14;46.50;101137.69;20991937;28;20048;-72
2023/07/11 16:58:47;;;;;;;4.03;3.20;;;;;;;28.31;46.59;101163.06;20990994;28;20553;-72
2023/07/11 17:08:52;;;;;;;3.33;3.03;;;;;;;28.33;46.42;101164.41;20990350;28;20041;-72
2023/07/11 17:18:57;;;;;;;3.80;3.40;;;;;;;28.19;46.33;101131.91;20989474;28;20036;-72
2023/07/11 17:28:59;;;;;;;3.97;3.45;;;;;;;28.36;46.48;101160.97;20992223;28;20110;-72
2023/07/11 17:39:08;;;;;;;3.88;3.47;;;;;;;28.36;46.28;101138.47;21004565;28;20040;-71
2023/07/11 17:49:10;;;;;;;3.95;3.53;;;;;;;28.36;46.39;101132.84;21003386;28;20106;-71
2023/07/11 17:59:12;;;;;;;3.15;2.83;;;;;;;28.42;46.43;101124.22;21003314;28;20122;-73
2023/07/11 18:09:14;;;;;;;3.88;3.47;;;;;;;28.38;46.23;101112.78;21002737;28;20036;-71
2023/07/11 18:19:15;;;;;;;3.35;3.05;;;;;;;28.45;46.28;101117.94;21001629;28;20024;-72
2023/07/11 18:29:17;;;;;;;3.67;2.92;;;;;;;28.47;46.23;101118.44;21000487;28;20024;-71
2023/07/11 18:39:21;;;;;;;3.38;3.08;;;;;;;28.47;46.48;101102.38;21028110;28;20391;-69
2023/07/11 18:49:22;;;;;;;3.63;3.28;;;;;;;28.51;46.32;101111.00;21081325;28;20048;-71
2023/07/11 18:59:24;;;;;;;3.35;3.05;;;;;;;28.46;46.47;101081.03;21082101;28;20036;-71
2023/07/11 19:09:28;;;;;;;4.32;3.33;;;;;;;28.51;46.41;101091.28;21080594;28;20109;-71
2023/07/11 19:19:33;;;;;;;3.83;3.50;;;;;;;28.53;46.40;101094.59;21080184;28;20082;-70
2023/07/11 19:29:37;;;;;;;3.42;3.13;;;;;;;28.45;46.49;101075.69;21078914;28;20036;-71
2023/07/11 19:39:38;;;;;;;3.90;3.50;;;;;;;28.56;46.64;101086.31;21076539;28;20632;-72
2023/07/11 19:49:43;;;;;;;3.45;3.15;;;;;;;28.57;46.45;101081.53;21078321;28;20052;-72
2023/07/11 19:59:48;;;;;;;4.07;3.35;;;;;;;28.59;46.57;101073.56;21077833;28;20044;-70
2023/07/11 20:09:50;;;;;;;3.92;3.53;;;;;;;28.54;46.60;101054.84;21077211;28;20073;-73
2023/07/11 20:19:55;;;;;;;7.50;4.15;;;;;;;28.29;45.61;101047.19;21074290;28;20085;-72
2023/07/11 20:29:56;;;;;;;3.78;3.10;;;;;;;28.01;44.39;101071.97;21074934;28;20044;-72
2023/07/11 20:39:57;;;;;;;6.50;3.50;;;;;;;27.84;43.78;101070.72;21074950;28;20093;-72
2023/07/11 20:49:59;;;;;;;4.15;3.70;;;;;;;27.69;42.79;101078.75;21075598;28;20076;-70
2023/07/11 21:00:00;;;;;;;3.65;3.20;;;;;;;27.59;42.47;101071.44;21074849;28;20364;-71
2023/07/11 21:10:02;;;;;;;4.22;3.50;;;;;;;27.46;42.34;101063.94;21088361;28;20043;-72
2023/07/11 21:20:04;;;;;;;3.33;3.03;;;;;;;27.43;42.16;101082.25;21082497;28;20054;-65
2023/07/11 21:30:20;;;;;;;31.33;4.88;;;;;;;27.53;44.19;101078.34;21082921;28;20040;-70
2023/07/11 21:40:25;;;;;;;32.33;5.40;;;;;;;27.61;44.12;101078.38;21077168;28;20108;-69
2023/07/11 21:50:49;;;;;;;29.77;6.05;;;;;;;27.63;44.31;101069.63;21085836;28;20047;-69
2023/07/11 22:00:52;;;;;;;21.38;5.03;;;;;;;27.67;44.78;101062.19;21082537;28;20445;-69
2023/07/11 22:10:54;;;;;;;21.60;5.18;;;;;;;27.58;44.69;101050.06;21071002;28;20487;-69
2023/07/11 22:20:58;;;;;;;54.35;6.85;;;;;;;27.53;44.84;101047.41;21082206;28;20436;-69
2023/07/11 22:31:01;;;;;;;54.60;6.38;;;;;;;27.55;44.84;101057.19;21082151;28;20036;-71
2023/07/11 22:41:02;;;;;;;35.00;6.85;;;;;;;27.66;44.81;101077.41;21080894;28;20031;-72
2023/07/11 22:51:07;;;;;;;30.13;5.72;;;;;;;27.59;44.63;101069.44;21081439;28;20387;-71
2023/07/11 23:01:13;;;;;;;13.32;4.43;;;;;;;27.62;44.49;101079.19;21082350;28;20056;-71
2023/07/11 23:11:15;;;;;;;16.75;5.10;;;;;;;27.67;44.38;101090.31;21081483;28;20074;-71
2023/07/11 23:21:16;;;;;;;16.70;4.72;;;;;;;27.66;44.37;101097.09;21081066;28;20036;-70
2023/07/11 23:31:19;;;;;;;12.35;4.35;;;;;;;27.65;43.99;101095.44;21074017;28;20036;-72
2023/07/11 23:41:23;;;;;;;13.75;4.20;;;;;;;27.62;43.85;101112.94;21077468;28;20036;-71
2023/07/11 23:51:27;;;;;;;11.98;3.95;;;;;;;27.63;43.48;101109.00;21077171;28;20117;-71
